createdAt,value
2022-12-17T00:01:28.974Z,17.45
2022-12-17T00:04:27.162Z,17.43
2022-12-17T00:07:26.280Z,17.44
2022-12-17T00:10:12.995Z,17.35
2022-12-17T00:13:04.361Z,17.30
2022-12-17T00:15:57.371Z,17.32
2022-12-17T00:18:46.777Z,17.39
2022-12-17T00:21:39.696Z,17.39
2022-12-17T00:24:36.477Z,17.38
2022-12-17T00:27:31.082Z,17.38
2022-12-17T00:30:17.528Z,17.37
2022-12-17T00:33:09.033Z,17.33
2022-12-17T00:36:06.598Z,17.28
2022-12-17T00:38:56.152Z,17.36
2022-12-17T00:41:49.702Z,17.38
2022-12-17T00:44:50.159Z,17.38
2022-12-17T00:47:39.236Z,17.36
2022-12-17T00:50:28.592Z,17.34
2022-12-17T00:53:17.044Z,17.38
2022-12-17T00:56:21.403Z,17.41
2022-12-17T01:02:09.636Z,17.33
2022-12-17T01:05:01.904Z,17.33
2022-12-17T01:07:52.323Z,17.27
2022-12-17T01:10:48.063Z,17.26
2022-12-17T01:13:36.390Z,17.26
2022-12-17T01:16:32.352Z,17.30
2022-12-17T01:19:24.608Z,17.25
2022-12-17T01:22:10.186Z,17.19
2022-12-17T01:24:57.590Z,17.19
2022-12-17T01:27:47.915Z,17.16
2022-12-17T01:30:36.145Z,17.13
2022-12-17T01:33:34.132Z,17.04
2022-12-17T01:39:40.240Z,17.01
2022-12-17T01:42:34.980Z,16.99
2022-12-17T01:45:27.018Z,16.91
2022-12-17T01:48:22.484Z,16.91
2022-12-17T01:51:13.153Z,16.91
2022-12-17T01:54:11.939Z,16.87
2022-12-17T01:57:01.296Z,16.79
2022-12-17T02:00:06.553Z,16.78
2022-12-17T02:03:14.700Z,16.72
2022-12-17T02:06:22.370Z,16.65
2022-12-17T02:09:22.794Z,16.65
2022-12-17T02:12:26.792Z,16.64
2022-12-17T02:15:22.093Z,16.67
2022-12-17T02:18:14.225Z,16.66
2022-12-17T02:21:03.498Z,16.64
2022-12-17T02:23:58.495Z,16.69
2022-12-17T02:27:10.913Z,16.67
2022-12-17T02:30:01.861Z,16.60
2022-12-17T02:33:03.955Z,16.62
2022-12-17T02:35:54.283Z,16.61
2022-12-17T02:38:53.212Z,16.63
2022-12-17T02:42:00.566Z,16.70
2022-12-17T02:44:49.122Z,16.77
2022-12-17T02:47:38.113Z,16.74
2022-12-17T02:50:26.540Z,16.76
2022-12-17T02:53:12.831Z,16.71
2022-12-17T02:56:04.363Z,16.68
2022-12-17T02:58:55.666Z,16.71
2022-12-17T03:01:44.073Z,16.61
2022-12-17T03:04:34.993Z,16.67
2022-12-17T03:07:25.479Z,16.54
2022-12-17T03:10:14.580Z,16.66
2022-12-17T03:13:13.718Z,16.74
2022-12-17T03:16:26.823Z,16.79
2022-12-17T03:19:19.469Z,16.79
2022-12-17T03:22:11.658Z,16.79
2022-12-17T03:24:57.234Z,16.78
2022-12-17T03:27:55.850Z,16.78
2022-12-17T03:30:45.690Z,16.72
2022-12-17T03:33:45.539Z,16.75
2022-12-17T03:36:35.709Z,16.77
2022-12-17T03:39:28.493Z,16.67
2022-12-17T03:42:17.248Z,16.65
2022-12-17T03:45:07.577Z,16.62
2022-12-17T03:47:55.875Z,16.59
2022-12-17T03:50:45.484Z,16.64
2022-12-17T03:53:32.974Z,16.78
2022-12-17T03:56:18.791Z,16.75
2022-12-17T03:59:04.360Z,16.73
2022-12-17T04:01:53.082Z,16.78
2022-12-17T04:04:39.121Z,16.76
2022-12-17T04:07:29.897Z,16.76
2022-12-17T04:10:15.590Z,16.78
2022-12-17T04:13:03.760Z,16.78
2022-12-17T04:15:49.616Z,16.80
2022-12-17T04:18:35.243Z,16.83
2022-12-17T04:21:30.833Z,16.65
2022-12-17T04:24:16.406Z,16.77
2022-12-17T04:27:02.091Z,16.82
2022-12-17T04:29:47.878Z,16.83
2022-12-17T04:32:38.513Z,16.89
2022-12-17T04:35:30.180Z,16.89
2022-12-17T04:38:18.772Z,16.91
2022-12-17T04:41:04.518Z,16.90
2022-12-17T04:43:50.173Z,16.81
2022-12-17T04:46:36.682Z,16.86
2022-12-17T04:49:22.317Z,16.84
2022-12-17T04:52:17.319Z,16.86
2022-12-17T04:55:15.902Z,16.78
2022-12-17T04:58:01.271Z,16.79
2022-12-17T05:00:51.062Z,16.77
2022-12-17T05:03:37.170Z,16.78
2022-12-17T05:06:23.452Z,16.81
2022-12-17T05:09:09.027Z,16.77
2022-12-17T05:11:54.636Z,16.82
2022-12-17T05:14:40.187Z,16.82
2022-12-17T05:17:25.629Z,16.78
2022-12-17T05:20:11.337Z,16.82
2022-12-17T05:22:56.827Z,16.80
2022-12-17T05:25:42.535Z,16.79
2022-12-17T05:28:28.244Z,16.83
2022-12-17T05:31:17.803Z,16.83
2022-12-17T05:34:03.449Z,16.81
2022-12-17T05:36:49.355Z,16.79
2022-12-17T05:39:35.253Z,16.75
2022-12-17T05:42:20.838Z,16.77
2022-12-17T05:45:06.420Z,16.75
2022-12-17T05:47:51.852Z,16.74
2022-12-17T05:50:37.544Z,16.73
2022-12-17T05:53:24.175Z,16.75
2022-12-17T05:56:09.985Z,16.66
2022-12-17T05:58:56.097Z,16.75
2022-12-17T06:01:42.035Z,16.70
2022-12-17T06:04:28.675Z,16.69
2022-12-17T06:07:17.273Z,16.68
2022-12-17T06:10:02.968Z,16.70
2022-12-17T06:12:51.474Z,16.74
2022-12-17T06:15:37.071Z,16.70
2022-12-17T06:18:22.687Z,16.71
2022-12-17T06:21:07.828Z,16.73
2022-12-17T06:23:53.362Z,16.64
2022-12-17T06:26:39.014Z,16.68
2022-12-17T06:29:24.675Z,16.64
2022-12-17T06:32:10.294Z,16.66
2022-12-17T06:34:55.754Z,16.70
2022-12-17T06:37:41.229Z,16.70
2022-12-17T06:40:26.976Z,16.70
2022-12-17T06:43:15.672Z,16.77
2022-12-17T06:46:01.263Z,16.73
2022-12-17T06:48:48.842Z,16.75
2022-12-17T06:51:34.306Z,16.79
2022-12-17T06:54:20.099Z,16.79
2022-12-17T06:57:05.689Z,16.78
2022-12-17T06:59:51.376Z,16.74
2022-12-17T07:02:40.320Z,16.76
2022-12-17T07:05:28.369Z,16.77
2022-12-17T07:08:20.254Z,16.76
2022-12-17T07:11:11.647Z,16.77
2022-12-17T07:14:00.008Z,16.79
2022-12-17T07:16:45.723Z,16.80
2022-12-17T07:19:31.258Z,16.79
2022-12-17T07:22:21.913Z,16.83
2022-12-17T07:25:13.546Z,16.85
2022-12-17T07:27:59.257Z,16.89
2022-12-17T07:30:52.659Z,16.81
2022-12-17T07:33:42.187Z,16.90
2022-12-17T07:36:39.160Z,16.94
2022-12-17T07:39:30.339Z,16.88
2022-12-17T07:42:16.330Z,16.80
2022-12-17T07:45:02.251Z,16.84
2022-12-17T07:47:51.626Z,16.78
2022-12-17T07:50:40.348Z,16.81
2022-12-17T07:56:34.079Z,16.85
2022-12-17T07:59:23.100Z,16.84
2022-12-17T08:02:12.769Z,16.88
2022-12-17T08:05:01.943Z,16.84
2022-12-17T08:07:51.269Z,16.88
2022-12-17T08:10:40.169Z,16.83
2022-12-17T08:13:37.211Z,16.85
2022-12-17T08:16:28.426Z,16.86
2022-12-17T08:19:14.081Z,16.88
2022-12-17T08:22:16.299Z,16.90
2022-12-17T08:25:05.956Z,16.78
2022-12-17T08:28:01.096Z,16.79
2022-12-17T08:30:50.269Z,16.73
2022-12-17T08:33:39.270Z,16.68
2022-12-17T08:36:33.252Z,16.66
2022-12-17T08:39:24.155Z,16.72
2022-12-17T08:42:12.718Z,16.66
2022-12-17T08:45:00.728Z,16.64
2022-12-17T08:47:51.350Z,16.55
2022-12-17T08:50:55.043Z,16.52
2022-12-17T08:53:51.807Z,16.55
2022-12-17T08:56:39.831Z,16.55
2022-12-17T08:59:30.273Z,16.55
2022-12-17T09:02:19.292Z,16.58
2022-12-17T09:05:08.864Z,16.61
2022-12-17T09:08:13.937Z,16.66
2022-12-17T09:11:03.010Z,16.69
2022-12-17T09:13:55.579Z,16.73
2022-12-17T09:16:52.467Z,16.75
2022-12-17T09:19:44.489Z,16.80
2022-12-17T09:22:33.906Z,16.88
2022-12-17T09:25:19.784Z,16.88
2022-12-17T09:28:05.915Z,17.05
2022-12-17T09:34:02.418Z,17.29
2022-12-17T09:36:51.186Z,17.50
2022-12-17T09:39:45.040Z,17.75
2022-12-17T09:42:38.612Z,17.91
2022-12-17T09:45:35.117Z,17.94
2022-12-17T09:48:32.119Z,17.92
2022-12-17T09:51:23.122Z,17.92
2022-12-17T09:54:10.073Z,17.88
2022-12-17T09:56:57.709Z,17.84
2022-12-17T09:59:50.542Z,17.86
2022-12-17T10:02:56.475Z,17.91
2022-12-17T10:15:33.777Z,20.42
2022-12-17T10:18:31.432Z,20.81
2022-12-17T10:21:32.144Z,20.72
2022-12-17T10:24:30.925Z,20.69
2022-12-17T10:27:16.675Z,21.01
2022-12-17T10:30:21.183Z,21.31
2022-12-17T10:33:27.044Z,21.17
2022-12-17T10:36:15.897Z,21.75
2022-12-17T10:39:01.654Z,21.88
2022-12-17T10:41:54.710Z,21.70
2022-12-17T10:44:58.919Z,21.48
2022-12-17T10:47:50.851Z,21.35
2022-12-17T10:50:46.274Z,21.01
2022-12-17T10:53:46.215Z,20.85
2022-12-17T10:56:46.882Z,20.62
2022-12-17T10:59:53.813Z,20.46
2022-12-17T11:02:47.412Z,20.24
2022-12-17T11:08:55.252Z,19.72
2022-12-17T11:11:45.443Z,19.71
2022-12-17T11:14:38.397Z,19.63
2022-12-17T11:17:36.280Z,19.45
2022-12-17T11:20:39.267Z,19.42
2022-12-17T11:23:36.895Z,19.33
2022-12-17T11:26:38.157Z,19.28
2022-12-17T11:29:30.879Z,19.22
2022-12-17T11:32:41.848Z,19.19
2022-12-17T11:35:39.311Z,19.09
2022-12-17T11:38:44.090Z,19.14
2022-12-17T11:41:47.672Z,19.03
2022-12-17T11:44:51.839Z,19.04
2022-12-17T11:47:46.152Z,19.02
2022-12-17T11:50:39.685Z,18.98
2022-12-17T11:53:41.155Z,18.96
2022-12-17T11:56:35.902Z,18.81
2022-12-17T11:59:49.336Z,18.83
2022-12-17T12:02:48.892Z,18.86
2022-12-17T12:05:41.389Z,18.86
2022-12-17T12:08:28.863Z,18.90
2022-12-17T12:11:31.216Z,18.84
2022-12-17T12:14:31.734Z,18.93
2022-12-17T12:17:26.700Z,18.93
2022-12-17T12:20:19.271Z,18.81
2022-12-17T12:23:10.291Z,18.68
2022-12-17T12:26:28.785Z,18.72
2022-12-17T12:29:17.552Z,18.72
2022-12-17T12:32:09.307Z,18.70
2022-12-17T12:34:59.929Z,18.66
2022-12-17T12:37:53.681Z,18.65
2022-12-17T12:40:59.162Z,18.39
2022-12-17T12:44:06.030Z,18.54
2022-12-17T12:46:51.616Z,18.44
2022-12-17T12:49:44.633Z,18.46
2022-12-17T12:52:46.627Z,18.41
2022-12-17T12:55:41.037Z,18.32
2022-12-17T12:58:46.821Z,18.43
2022-12-17T13:01:34.959Z,18.36
2022-12-17T13:04:42.401Z,18.32
2022-12-17T13:07:22.934Z,18.08
2022-12-17T13:09:55.661Z,18.23
2022-12-17T13:12:31.574Z,18.31
2022-12-17T13:14:59.097Z,18.37
2022-12-17T13:17:36.385Z,18.29
2022-12-17T13:20:23.219Z,18.45
2022-12-17T13:22:57.587Z,18.51
2022-12-17T13:25:28.015Z,18.51
2022-12-17T13:27:55.297Z,18.67
2022-12-17T13:30:30.131Z,18.79
2022-12-17T13:32:57.567Z,18.72
2022-12-17T13:35:49.048Z,18.92
2022-12-17T13:38:37.097Z,18.84
2022-12-17T13:41:14.664Z,18.89
2022-12-17T13:44:09.412Z,18.78
2022-12-17T13:46:50.496Z,18.46
2022-12-17T13:49:35.967Z,18.53
2022-12-17T13:52:16.659Z,18.47
2022-12-17T13:54:43.994Z,18.69
2022-12-17T13:57:14.733Z,18.59
2022-12-17T13:59:42.414Z,18.50
2022-12-17T14:02:27.216Z,18.44
2022-12-17T14:04:55.891Z,18.20
2022-12-17T14:07:26.137Z,18.46
2022-12-17T14:09:56.853Z,18.43
2022-12-17T14:12:26.476Z,18.34
2022-12-17T14:14:55.339Z,18.30
2022-12-17T14:17:24.506Z,18.39
2022-12-17T14:20:02.950Z,19.07
2022-12-17T14:22:37.096Z,19.46
2022-12-17T14:25:05.674Z,19.57
2022-12-17T14:27:36.846Z,19.49
2022-12-17T14:30:20.765Z,19.06
2022-12-17T14:32:54.103Z,19.43
2022-12-17T14:35:26.616Z,19.41
2022-12-17T14:37:54.456Z,18.83
2022-12-17T14:40:22.546Z,19.04
2022-12-17T14:42:53.527Z,18.95
2022-12-17T14:45:23.066Z,19.04
2022-12-17T14:48:02.413Z,19.13
2022-12-17T14:50:32.021Z,19.08
2022-12-17T14:53:04.216Z,19.42
2022-12-17T14:55:34.351Z,19.17
2022-12-17T14:58:23.620Z,19.57
2022-12-17T15:01:05.126Z,19.84
2022-12-17T15:03:46.769Z,19.96
2022-12-17T15:06:25.077Z,19.49
2022-12-17T15:08:59.304Z,18.97
2022-12-17T15:11:36.097Z,19.09
2022-12-17T15:14:09.894Z,19.33
2022-12-17T15:19:27.265Z,19.21
2022-12-17T15:22:09.032Z,18.99
2022-12-17T15:24:53.590Z,18.72
2022-12-17T15:27:44.202Z,18.68
2022-12-17T15:30:18.250Z,18.39
2022-12-17T15:32:47.931Z,18.11
2022-12-17T15:35:16.247Z,17.90
2022-12-17T15:37:44.635Z,17.98
2022-12-17T15:40:15.035Z,17.91
2022-12-17T15:43:06.515Z,17.74
2022-12-17T15:45:36.243Z,17.87
2022-12-17T15:48:08.324Z,17.57
2022-12-17T15:50:39.097Z,17.68
2022-12-17T15:53:10.271Z,17.35
2022-12-17T15:55:38.459Z,17.67
2022-12-17T15:58:06.931Z,17.48
2022-12-17T16:00:37.897Z,17.44
2022-12-17T16:03:06.015Z,17.65
2022-12-17T16:05:37.487Z,17.20
2022-12-17T16:08:05.574Z,17.13
2022-12-17T16:10:40.206Z,17.20
2022-12-17T16:13:10.144Z,17.21
2022-12-17T16:15:40.016Z,17.16
2022-12-17T16:18:09.018Z,17.25
2022-12-17T16:20:44.900Z,17.42
2022-12-17T16:23:12.104Z,17.33
2022-12-17T16:25:40.194Z,17.09
2022-12-17T16:28:15.128Z,17.34
2022-12-17T16:30:45.515Z,17.46
2022-12-17T16:33:22.739Z,17.37
2022-12-17T16:35:53.964Z,17.43
2022-12-17T16:38:32.508Z,17.29
2022-12-17T16:41:07.212Z,17.39
2022-12-17T16:43:34.915Z,17.23
2022-12-17T16:46:11.954Z,17.34
2022-12-17T16:48:42.141Z,17.40
2022-12-17T16:51:28.949Z,17.32
2022-12-17T16:54:00.663Z,17.32
2022-12-17T16:59:41.666Z,17.29
2022-12-17T17:02:18.567Z,17.31
2022-12-17T17:04:50.612Z,17.43
2022-12-17T17:07:21.122Z,17.39
2022-12-17T17:09:53.903Z,17.50
2022-12-17T17:12:21.051Z,17.42
2022-12-17T17:14:50.498Z,17.34
2022-12-17T17:17:20.374Z,16.74
2022-12-17T17:20:07.844Z,17.21
2022-12-17T17:22:40.210Z,17.04
2022-12-17T17:25:07.950Z,17.19
2022-12-17T17:27:35.238Z,17.15
2022-12-17T17:30:12.168Z,17.23
2022-12-17T17:32:48.747Z,16.87
2022-12-17T17:35:17.123Z,16.99
2022-12-17T17:37:56.067Z,17.18
2022-12-17T17:40:27.838Z,17.15
2022-12-17T17:42:57.794Z,17.10
2022-12-17T17:45:25.304Z,17.01
2022-12-17T17:47:52.662Z,16.86
2022-12-17T17:50:24.111Z,17.08
2022-12-17T17:52:52.129Z,17.20
2022-12-17T17:55:19.424Z,17.28
2022-12-17T17:57:50.053Z,17.30
2022-12-17T18:00:22.762Z,17.29
2022-12-17T18:02:54.111Z,17.30
2022-12-17T18:05:25.902Z,17.30
2022-12-17T18:07:55.459Z,17.20
2022-12-17T18:10:24.318Z,17.24
2022-12-17T18:13:12.494Z,17.06
2022-12-17T18:15:53.767Z,17.08
2022-12-17T18:18:30.870Z,17.11
2022-12-17T18:21:07.815Z,17.07
2022-12-17T18:23:42.989Z,17.09
2022-12-17T18:26:10.006Z,17.11
2022-12-17T18:28:38.521Z,17.13
2022-12-17T18:31:08.539Z,17.21
2022-12-17T18:33:37.756Z,17.12
2022-12-17T18:36:18.799Z,16.89
2022-12-17T18:38:46.099Z,16.98
2022-12-17T18:41:33.651Z,16.93
2022-12-17T18:44:02.709Z,17.08
2022-12-17T18:46:30.148Z,17.11
2022-12-17T18:49:03.809Z,17.15
2022-12-17T18:51:30.914Z,17.08
2022-12-17T18:53:59.086Z,17.06
2022-12-17T18:56:59.933Z,17.17
2022-12-17T18:59:24.204Z,17.18
2022-12-17T19:01:57.406Z,17.14
2022-12-17T19:04:29.387Z,17.15
2022-12-17T19:06:59.329Z,17.16
2022-12-17T19:09:37.222Z,17.17
2022-12-17T19:12:08.707Z,17.19
2022-12-17T19:14:38.670Z,17.12
2022-12-17T19:17:06.422Z,17.18
2022-12-17T19:19:39.929Z,17.21
2022-12-17T19:22:09.304Z,17.18
2022-12-17T19:24:36.737Z,17.20
2022-12-17T19:27:04.100Z,17.18
2022-12-17T19:29:34.352Z,17.16
2022-12-17T19:32:11.109Z,17.14
2022-12-17T19:34:39.024Z,17.17
2022-12-17T19:37:11.754Z,17.15
2022-12-17T19:39:43.014Z,17.13
2022-12-17T19:42:37.482Z,17.13
2022-12-17T19:45:11.150Z,17.11
2022-12-17T19:47:38.610Z,17.09
2022-12-17T19:53:03.482Z,17.09
2022-12-17T19:55:35.724Z,16.97
2022-12-17T19:58:06.561Z,17.05
2022-12-17T20:00:37.506Z,17.11
2022-12-17T20:03:07.411Z,17.09
2022-12-17T20:05:37.746Z,17.06
2022-12-17T20:08:07.979Z,17.05
2022-12-17T20:10:38.851Z,17.06
2022-12-17T20:13:10.079Z,17.10
2022-12-17T20:15:52.347Z,17.10
2022-12-17T20:18:34.605Z,17.05
2022-12-17T20:21:13.584Z,17.07
2022-12-17T20:23:47.810Z,17.08
2022-12-17T20:26:27.353Z,17.08
2022-12-17T20:29:03.704Z,17.01
2022-12-17T20:31:45.528Z,17.07
2022-12-17T20:34:20.369Z,17.03
2022-12-17T20:37:04.215Z,17.00
2022-12-17T20:39:34.822Z,17.00
2022-12-17T20:42:11.389Z,16.98
2022-12-17T20:44:53.398Z,16.94
2022-12-17T20:47:33.447Z,16.91
2022-12-17T20:50:10.634Z,16.86
2022-12-17T20:52:55.468Z,16.84
2022-12-17T20:55:31.245Z,16.80
2022-12-17T20:58:12.085Z,16.69
2022-12-17T21:00:46.396Z,16.69
2022-12-17T21:03:16.364Z,16.70
2022-12-17T21:05:50.089Z,16.69
2022-12-17T21:08:21.998Z,16.65
2022-12-17T21:10:58.992Z,16.66
2022-12-17T21:13:29.601Z,16.64
2022-12-17T21:16:01.155Z,16.64
2022-12-17T21:18:32.195Z,16.61
2022-12-17T21:21:01.116Z,16.59
2022-12-17T21:23:33.727Z,16.58
2022-12-17T21:26:20.125Z,16.56
2022-12-17T21:28:56.102Z,16.55
2022-12-17T21:32:03.523Z,16.52
2022-12-17T21:34:44.728Z,16.47
2022-12-17T21:37:31.870Z,16.50
2022-12-17T21:40:08.921Z,16.49
2022-12-17T21:43:08.230Z,16.47
2022-12-17T21:45:41.781Z,16.51
2022-12-17T21:48:41.576Z,16.46
2022-12-17T21:51:51.975Z,16.44
2022-12-17T21:54:56.332Z,16.40
2022-12-17T21:57:55.396Z,16.44
2022-12-17T22:00:32.257Z,16.40
2022-12-17T22:03:05.399Z,16.36
2022-12-17T22:05:48.492Z,16.34
2022-12-17T22:08:19.547Z,16.33
2022-12-17T22:10:50.779Z,16.31
2022-12-17T22:13:46.304Z,16.28
2022-12-17T22:16:19.491Z,16.24
2022-12-17T22:18:52.895Z,16.26
2022-12-17T22:21:47.506Z,16.23
2022-12-17T22:24:28.008Z,16.19
2022-12-17T22:27:09.444Z,16.14
2022-12-17T22:29:57.617Z,16.13
2022-12-17T22:32:46.935Z,16.14
2022-12-17T22:36:04.163Z,16.09
2022-12-17T22:41:17.396Z,16.05
2022-12-17T22:44:34.798Z,16.07
2022-12-17T22:44:41.157Z,16.05
2022-12-17T22:47:01.297Z,16.03
2022-12-17T22:49:34.776Z,15.98
2022-12-17T22:52:10.622Z,15.97
2022-12-17T22:54:44.443Z,15.98
2022-12-17T22:57:36.661Z,16.02
2022-12-17T23:00:03.024Z,16.02
2022-12-17T23:02:33.304Z,16.02
2022-12-17T23:05:02.338Z,16.02
2022-12-17T23:07:57.663Z,15.95
2022-12-17T23:10:32.408Z,16.03
2022-12-17T23:12:59.767Z,15.96
2022-12-17T23:15:38.474Z,16.03
2022-12-17T23:18:10.284Z,16.00
2022-12-17T23:20:37.462Z,16.05
2022-12-17T23:23:05.173Z,16.05
2022-12-17T23:25:34.945Z,16.06
2022-12-17T23:28:05.464Z,16.03
2022-12-17T23:30:36.768Z,15.96
2022-12-17T23:33:05.593Z,15.94
2022-12-17T23:35:36.721Z,15.93
2022-12-17T23:38:04.318Z,15.90
2022-12-17T23:40:31.734Z,15.92
2022-12-17T23:43:01.252Z,15.87
2022-12-17T23:45:28.726Z,15.86
2022-12-17T23:47:57.786Z,15.80
2022-12-17T23:50:24.843Z,15.74
2022-12-17T23:52:52.035Z,15.72
2022-12-17T23:55:19.094Z,15.67
2022-12-17T23:57:46.159Z,15.58
